CAE weather

Columbia Metropolitan Airport
Columbia, South Carolina, United States

Public forecast

Using degrees Fahrenheit for public forecast. Weather courtesy of forecast.io.

Current aviation weather report (METAR) for Columbia Metropolitan Airport

Retrieved 2019/10/19 04:56 UTC (40 minutes ago):

KCAE 190456Z 19003KT 10SM BKN150 10/08 A3003 RMK AO2 SLP168 T01000078 402170050

Aviation forecast (TAF) for Columbia Metropolitan Airport

Retrieved 2019-10-19 00:27 UTC (5 hours ago):

TAF KCAE 182325Z 1900/1924 14005KT P6SM SCT150 OVC200 FM191000 08006KT P6SM SCT050 OVC100 FM191300 06009KT 6SM -SHRA BKN025 OVC050 FM191700 07010G20KT 3SM -RA BR SCT007 OVC010 FM192000 07015G25KT 1 1/2SM -RA BR BKN007 OVC010